sensor_id;sensor_type;location;lat;lon;timestamp;pressure;altitude;pressure_sealevel;temperature;humidity
24013;BME280;12220;50.194;18.948;2023-08-17T00:00:15;102150.25;;;25.44;63.87
24013;BME280;12220;50.194;18.948;2023-08-17T00:02:24;102145.36;;;25.46;63.91
24013;BME280;12220;50.194;18.948;2023-08-17T00:04:27;102152.70;;;25.47;63.81
24013;BME280;12220;50.194;18.948;2023-08-17T00:06:28;102158.32;;;25.47;63.79
24013;BME280;12220;50.194;18.948;2023-08-17T00:08:29;102153.78;;;25.46;63.68
24013;BME280;12220;50.194;18.948;2023-08-17T00:10:31;102154.81;;;25.45;63.57
24013;BME280;12220;50.194;18.948;2023-08-17T00:12:42;102149.55;;;25.42;63.42
24013;BME280;12220;50.194;18.948;2023-08-17T00:14:43;102151.98;;;25.36;63.50
24013;BME280;12220;50.194;18.948;2023-08-17T00:16:44;102147.93;;;25.31;63.45
24013;BME280;12220;50.194;18.948;2023-08-17T00:18:46;102136.34;;;25.26;63.39
24013;BME280;12220;50.194;18.948;2023-08-17T00:20:56;102138.94;;;25.19;63.34
24013;BME280;12220;50.194;18.948;2023-08-17T00:22:58;102141.39;;;25.14;63.39
24013;BME280;12220;50.194;18.948;2023-08-17T00:24:59;102138.21;;;25.09;63.44
24013;BME280;12220;50.194;18.948;2023-08-17T00:27:00;102151.86;;;25.03;63.51
24013;BME280;12220;50.194;18.948;2023-08-17T00:29:11;102143.25;;;24.97;63.59
24013;BME280;12220;50.194;18.948;2023-08-17T00:31:16;102144.62;;;24.93;63.76
24013;BME280;12220;50.194;18.948;2023-08-17T00:33:17;102144.09;;;24.89;63.82
24013;BME280;12220;50.194;18.948;2023-08-17T00:35:19;102143.54;;;24.85;63.83
24013;BME280;12220;50.194;18.948;2023-08-17T00:37:26;102150.38;;;24.83;63.78
24013;BME280;12220;50.194;18.948;2023-08-17T00:39:27;102149.82;;;24.79;63.94
24013;BME280;12220;50.194;18.948;2023-08-17T00:41:31;102153.13;;;24.75;63.99
24013;BME280;12220;50.194;18.948;2023-08-17T00:43:32;102158.16;;;24.71;64.12
24013;BME280;12220;50.194;18.948;2023-08-17T00:45:41;102170.05;;;24.65;64.25
24013;BME280;12220;50.194;18.948;2023-08-17T00:47:45;102169.68;;;24.60;64.40
24013;BME280;12220;50.194;18.948;2023-08-17T00:49:47;102179.42;;;24.56;64.54
24013;BME280;12220;50.194;18.948;2023-08-17T00:51:50;102176.05;;;24.52;64.69
24013;BME280;12220;50.194;18.948;2023-08-17T00:53:58;102188.31;;;24.51;64.73
24013;BME280;12220;50.194;18.948;2023-08-17T00:56:01;102184.62;;;24.50;64.77
24013;BME280;12220;50.194;18.948;2023-08-17T00:58:06;102177.29;;;24.49;64.85
24013;BME280;12220;50.194;18.948;2023-08-17T01:00:09;102192.31;;;24.48;64.90
24013;BME280;12220;50.194;18.948;2023-08-17T01:02:11;102185.83;;;24.48;64.97
24013;BME280;12220;50.194;18.948;2023-08-17T01:04:12;102184.09;;;24.47;65.11
24013;BME280;12220;50.194;18.948;2023-08-17T01:06:14;102189.84;;;24.45;65.05
24013;BME280;12220;50.194;18.948;2023-08-17T01:08:15;102190.02;;;24.44;65.08
24013;BME280;12220;50.194;18.948;2023-08-17T01:10:37;102191.76;;;24.45;65.12
24013;BME280;12220;50.194;18.948;2023-08-17T01:12:56;101521.77;;;20.47;64.88
24013;BME280;12220;50.194;18.948;2023-08-17T01:15:14;102204.01;;;24.44;65.08
24013;BME280;12220;50.194;18.948;2023-08-17T01:17:43;102200.81;;;24.39;65.07
24013;BME280;12220;50.194;18.948;2023-08-17T01:19:36;102203.95;;;24.35;65.22
24013;BME280;12220;50.194;18.948;2023-08-17T01:21:42;102192.04;;;24.33;65.16
24013;BME280;12220;50.194;18.948;2023-08-17T01:23:49;102200.45;;;24.33;65.16
24013;BME280;12220;50.194;18.948;2023-08-17T01:26:00;102203.41;;;24.32;65.14
24013;BME280;12220;50.194;18.948;2023-08-17T01:28:02;102199.01;;;24.29;65.06
24013;BME280;12220;50.194;18.948;2023-08-17T01:30:05;102196.70;;;24.25;65.01
24013;BME280;12220;50.194;18.948;2023-08-17T01:32:18;102201.73;;;24.21;65.02
24013;BME280;12220;50.194;18.948;2023-08-17T01:34:22;102195.88;;;24.14;65.05
24013;BME280;12220;50.194;18.948;2023-08-17T01:36:29;102201.98;;;24.10;65.10
24013;BME280;12220;50.194;18.948;2023-08-17T01:38:36;102195.10;;;24.04;65.29
24013;BME280;12220;50.194;18.948;2023-08-17T01:40:41;102201.02;;;24.01;65.46
24013;BME280;12220;50.194;18.948;2023-08-17T01:42:44;102217.27;;;23.97;65.58
24013;BME280;12220;50.194;18.948;2023-08-17T01:44:46;102209.91;;;23.96;65.69
24013;BME280;12220;50.194;18.948;2023-08-17T01:46:48;102261.30;;;23.95;65.80
24013;BME280;12220;50.194;18.948;2023-08-17T01:48:52;102199.91;;;23.94;65.88
24013;BME280;12220;50.194;18.948;2023-08-17T01:50:57;102197.44;;;23.91;65.89
24013;BME280;12220;50.194;18.948;2023-08-17T01:52:59;102213.68;;;23.87;66.02
24013;BME280;12220;50.194;18.948;2023-08-17T01:55:01;102208.38;;;23.84;66.16
24013;BME280;12220;50.194;18.948;2023-08-17T01:57:02;102201.88;;;23.83;66.26
24013;BME280;12220;50.194;18.948;2023-08-17T01:59:08;102199.98;;;23.84;66.31
24013;BME280;12220;50.194;18.948;2023-08-17T02:01:10;102201.01;;;23.83;66.38
24013;BME280;12220;50.194;18.948;2023-08-17T02:03:11;102187.18;;;23.81;66.59
24013;BME280;12220;50.194;18.948;2023-08-17T02:05:13;102188.05;;;23.82;66.46
24013;BME280;12220;50.194;18.948;2023-08-17T02:07:25;102195.58;;;23.81;66.43
24013;BME280;12220;50.194;18.948;2023-08-17T02:09:27;102201.33;;;23.80;66.44
24013;BME280;12220;50.194;18.948;2023-08-17T02:11:33;102201.49;;;23.78;66.42
24013;BME280;12220;50.194;18.948;2023-08-17T02:13:35;102196.23;;;23.75;66.43
24013;BME280;12220;50.194;18.948;2023-08-17T02:15:41;102200.38;;;23.71;66.49
24013;BME280;12220;50.194;18.948;2023-08-17T02:17:42;102198.05;;;23.66;66.60
24013;BME280;12220;50.194;18.948;2023-08-17T02:19:44;102205.70;;;23.64;66.73
24013;BME280;12220;50.194;18.948;2023-08-17T02:21:45;102211.30;;;23.64;66.83
24013;BME280;12220;50.194;18.948;2023-08-17T02:23:55;102205.88;;;23.63;66.87
24013;BME280;12220;50.194;18.948;2023-08-17T02:25:56;102197.48;;;23.63;66.92
24013;BME280;12220;50.194;18.948;2023-08-17T02:27:58;102206.88;;;23.62;67.01
24013;BME280;12220;50.194;18.948;2023-08-17T02:30:01;102213.39;;;23.62;67.07
24013;BME280;12220;50.194;18.948;2023-08-17T02:32:08;102213.55;;;23.61;67.01
24013;BME280;12220;50.194;18.948;2023-08-17T02:34:09;102206.20;;;23.60;67.06
24013;BME280;12220;50.194;18.948;2023-08-17T02:36:11;102213.70;;;23.59;67.12
24013;BME280;12220;50.194;18.948;2023-08-17T02:38:12;102211.95;;;23.58;67.09
24013;BME280;12220;50.194;18.948;2023-08-17T02:40:22;102209.15;;;23.58;67.03
24013;BME280;12220;50.194;18.948;2023-08-17T02:42:24;102206.51;;;23.57;67.00
24013;BME280;12220;50.194;18.948;2023-08-17T02:44:28;102204.90;;;23.54;67.02
24013;BME280;12220;50.194;18.948;2023-08-17T02:46:29;102210.65;;;23.53;67.07
24013;BME280;12220;50.194;18.948;2023-08-17T02:48:37;102207.15;;;23.50;67.13
24013;BME280;12220;50.194;18.948;2023-08-17T02:50:38;102205.38;;;23.49;67.20
24013;BME280;12220;50.194;18.948;2023-08-17T02:52:40;102210.10;;;23.49;67.23
24013;BME280;12220;50.194;18.948;2023-08-17T02:54:41;102204.67;;;23.47;67.25
24013;BME280;12220;50.194;18.948;2023-08-17T02:56:52;102207.59;;;23.46;67.23
24013;BME280;12220;50.194;18.948;2023-08-17T02:58:54;102211.45;;;23.45;67.21
24013;BME280;12220;50.194;18.948;2023-08-17T03:00:55;102209.68;;;23.44;67.22
24013;BME280;12220;50.194;18.948;2023-08-17T03:02:59;102210.70;;;23.43;67.26
24013;BME280;12220;50.194;18.948;2023-08-17T03:05:07;102211.93;;;23.40;67.27
24013;BME280;12220;50.194;18.948;2023-08-17T03:07:08;102208.39;;;23.38;67.27
24013;BME280;12220;50.194;18.948;2023-08-17T03:09:10;102205.75;;;23.37;67.31
24013;BME280;12220;50.194;18.948;2023-08-17T03:11:12;102206.77;;;23.36;67.33
24013;BME280;12220;50.194;18.948;2023-08-17T03:13:22;102198.87;;;23.31;67.40
24013;BME280;12220;50.194;18.948;2023-08-17T03:15:26;102199.18;;;23.28;67.47
24013;BME280;12220;50.194;18.948;2023-08-17T03:17:30;102200.36;;;23.25;67.61
24013;BME280;12220;50.194;18.948;2023-08-17T03:19:31;102195.84;;;23.24;67.70
24013;BME280;12220;50.194;18.948;2023-08-17T03:21:39;102198.79;;;23.23;67.72
24013;BME280;12220;50.194;18.948;2023-08-17T03:23:41;102198.05;;;23.21;67.83
24013;BME280;12220;50.194;18.948;2023-08-17T03:25:44;102198.05;;;23.21;67.85
24013;BME280;12220;50.194;18.948;2023-08-17T03:27:47;102208.20;;;23.22;67.92
24013;BME280;12220;50.194;18.948;2023-08-17T03:29:51;102226.73;;;23.23;67.92
24013;BME280;12220;50.194;18.948;2023-08-17T03:31:52;102203.32;;;23.24;67.90
24013;BME280;12220;50.194;18.948;2023-08-17T03:33:54;102195.10;;;23.22;67.95
24013;BME280;12220;50.194;18.948;2023-08-17T03:35:56;102195.98;;;23.23;68.01
24013;BME280;12220;50.194;18.948;2023-08-17T03:38:06;102208.03;;;23.23;68.05
24013;BME280;12220;50.194;18.948;2023-08-17T03:40:08;102202.45;;;23.23;68.09
24013;BME280;12220;50.194;18.948;2023-08-17T03:42:09;102198.94;;;23.21;68.21
24013;BME280;12220;50.194;18.948;2023-08-17T03:44:11;102189.51;;;23.22;68.29
24013;BME280;12220;50.194;18.948;2023-08-17T03:46:21;101993.22;;;22.09;68.25
24013;BME280;12220;50.194;18.948;2023-08-17T03:48:22;102178.64;;;23.19;68.38
24013;BME280;12220;50.194;18.948;2023-08-17T03:50:27;102182.30;;;23.20;68.47
24013;BME280;12220;50.194;18.948;2023-08-17T03:52:32;102176.72;;;23.20;68.58
24013;BME280;12220;50.194;18.948;2023-08-17T03:54:36;102180.41;;;23.20;68.63
24013;BME280;12220;50.194;18.948;2023-08-17T03:56:37;102185.09;;;23.20;68.73
24013;BME280;12220;50.194;18.948;2023-08-17T03:58:40;102184.23;;;23.19;68.82
24013;BME280;12220;50.194;18.948;2023-08-17T04:00:51;102187.02;;;23.19;68.93
24013;BME280;12220;50.194;18.948;2023-08-17T04:02:56;102188.95;;;23.19;68.99
24013;BME280;12220;50.194;18.948;2023-08-17T04:04:57;102195.56;;;23.18;69.02
24013;BME280;12220;50.194;18.948;2023-08-17T04:06:58;102193.80;;;23.17;69.10
24013;BME280;12220;50.194;18.948;2023-08-17T04:09:00;102195.72;;;23.16;69.15
24013;BME280;12220;50.194;18.948;2023-08-17T04:11:05;102205.88;;;23.17;69.18
24013;BME280;12220;50.194;18.948;2023-08-17T04:13:07;102197.48;;;23.17;69.26
24013;BME280;12220;50.194;18.948;2023-08-17T04:15:08;102214.25;;;23.17;69.34
24013;BME280;12220;50.194;18.948;2023-08-17T04:17:11;102212.33;;;23.18;69.40
24013;BME280;12220;50.194;18.948;2023-08-17T04:19:20;102214.25;;;23.17;69.40
24013;BME280;12220;50.194;18.948;2023-08-17T04:21:24;102218.95;;;23.17;69.50
24013;BME280;12220;50.194;18.948;2023-08-17T04:23:26;102218.95;;;23.17;69.58
24013;BME280;12220;50.194;18.948;2023-08-17T04:25:30;102225.43;;;23.17;69.67
24013;BME280;12220;50.194;18.948;2023-08-17T04:27:35;102222.33;;;23.20;69.65
24013;BME280;12220;50.194;18.948;2023-08-17T04:29:38;102018.25;;;21.91;69.64
24013;BME280;12220;50.194;18.948;2023-08-17T04:31:42;102224.80;;;23.23;69.74
24013;BME280;12220;50.194;18.948;2023-08-17T04:33:43;102221.85;;;23.25;69.76
24013;BME280;12220;50.194;18.948;2023-08-17T04:35:50;102227.61;;;23.23;69.71
24013;BME280;12220;50.194;18.948;2023-08-17T04:37:58;102219.54;;;23.20;69.80
24013;BME280;12220;50.194;18.948;2023-08-17T04:40:00;102219.54;;;23.20;69.92
24013;BME280;12220;50.194;18.948;2023-08-17T04:42:06;102225.84;;;23.22;69.97
24013;BME280;12220;50.194;18.948;2023-08-17T04:44:09;102224.96;;;23.22;69.97
24013;BME280;12220;50.194;18.948;2023-08-17T04:46:11;102224.09;;;23.21;70.01
24013;BME280;12220;50.194;18.948;2023-08-17T04:48:13;102232.47;;;23.21;70.02
24013;BME280;12220;50.194;18.948;2023-08-17T04:50:16;102231.42;;;23.22;70.03
24013;BME280;12220;50.194;18.948;2023-08-17T04:52:23;102237.02;;;23.22;70.04
24013;BME280;12220;50.194;18.948;2023-08-17T04:54:24;102144.60;;;22.68;70.06
24013;BME280;12220;50.194;18.948;2023-08-17T04:56:26;102250.98;;;23.22;70.17
24013;BME280;12220;50.194;18.948;2023-08-17T04:58:29;102240.70;;;23.23;70.24
24013;BME280;12220;50.194;18.948;2023-08-17T05:00:37;102248.93;;;23.24;70.26
24013;BME280;12220;50.194;18.948;2023-08-17T05:02:41;102247.88;;;23.25;70.30
24013;BME280;12220;50.194;18.948;2023-08-17T05:04:42;102244.93;;;23.27;70.35
24013;BME280;12220;50.194;18.948;2023-08-17T05:06:44;102247.73;;;23.27;70.46
24013;BME280;12220;50.194;18.948;2023-08-17T05:08:52;102246.70;;;23.28;70.47
24013;BME280;12220;50.194;18.948;2023-08-17T05:10:53;102252.13;;;23.29;70.57
24013;BME280;12220;50.194;18.948;2023-08-17T05:12:58;102250.08;;;23.31;70.67
24013;BME280;12220;50.194;18.948;2023-08-17T05:14:59;102263.58;;;23.36;70.75
24013;BME280;12220;50.194;18.948;2023-08-17T05:17:06;102267.98;;;23.39;70.75
24013;BME280;12220;50.194;18.948;2023-08-17T05:19:11;102271.50;;;23.41;70.76
24013;BME280;12220;50.194;18.948;2023-08-17T05:21:12;102276.05;;;23.42;70.79
24013;BME280;12220;50.194;18.948;2023-08-17T05:23:13;102282.36;;;23.44;70.85
24013;BME280;12220;50.194;18.948;2023-08-17T05:25:21;102280.43;;;23.44;70.82
24013;BME280;12220;50.194;18.948;2023-08-17T05:27:30;102278.70;;;23.43;70.88
24013;BME280;12220;50.194;18.948;2023-08-17T05:29:31;102290.04;;;23.42;70.94
24013;BME280;12220;50.194;18.948;2023-08-17T05:31:33;102295.63;;;23.42;70.97
24013;BME280;12220;50.194;18.948;2023-08-17T05:33:39;102286.18;;;23.43;71.02
24013;BME280;12220;50.194;18.948;2023-08-17T05:35:41;102286.18;;;23.43;71.08
24013;BME280;12220;50.194;18.948;2023-08-17T05:37:43;102276.05;;;23.42;71.14
24013;BME280;12220;50.194;18.948;2023-08-17T05:39:44;102278.86;;;23.42;71.23
24013;BME280;12220;50.194;18.948;2023-08-17T05:41:51;102278.86;;;23.42;71.29
24013;BME280;12220;50.194;18.948;2023-08-17T05:43:52;102278.86;;;23.42;71.36
24013;BME280;12220;50.194;18.948;2023-08-17T05:45:53;102298.42;;;23.42;71.50
24013;BME280;12220;50.194;18.948;2023-08-17T05:47:55;102279.56;;;23.44;71.47
24013;BME280;12220;50.194;18.948;2023-08-17T05:50:06;102282.21;;;23.45;71.65
24013;BME280;12220;50.194;18.948;2023-08-17T05:52:08;102278.38;;;23.46;71.74
24013;BME280;12220;50.194;18.948;2023-08-17T05:54:09;102282.95;;;23.47;71.83
24013;BME280;12220;50.194;18.948;2023-08-17T05:56:10;102279.99;;;23.49;71.87
24013;BME280;12220;50.194;18.948;2023-08-17T05:58:20;102275.99;;;23.52;71.88
24013;BME280;12220;50.194;18.948;2023-08-17T06:00:22;102279.68;;;23.52;71.94
24013;BME280;12220;50.194;18.948;2023-08-17T06:02:24;102276.73;;;23.54;72.05
24013;BME280;12220;50.194;18.948;2023-08-17T06:04:26;102277.28;;;23.57;72.08
24013;BME280;12220;50.194;18.948;2023-08-17T06:06:35;102268.57;;;23.60;72.09
24013;BME280;12220;50.194;18.948;2023-08-17T06:08:37;101950.35;;;21.72;71.95
24013;BME280;12220;50.194;18.948;2023-08-17T06:10:38;102265.45;;;23.63;72.15
24013;BME280;12220;50.194;18.948;2023-08-17T06:12:39;102271.80;;;23.65;72.22
24013;BME280;12220;50.194;18.948;2023-08-17T06:14:50;102273.40;;;23.68;72.24
24013;BME280;12220;50.194;18.948;2023-08-17T06:16:51;102276.91;;;23.70;72.23
24013;BME280;12220;50.194;18.948;2023-08-17T06:18:53;102274.86;;;23.72;72.15
24013;BME280;12220;50.194;18.948;2023-08-17T06:20:54;102273.48;;;23.76;72.18
24013;BME280;12220;50.194;18.948;2023-08-17T06:23:05;102275.09;;;23.79;72.09
24013;BME280;12220;50.194;18.948;2023-08-17T06:25:07;102274.06;;;23.80;72.11
24013;BME280;12220;50.194;18.948;2023-08-17T06:27:09;102279.34;;;23.83;72.12
24013;BME280;12220;50.194;18.948;2023-08-17T06:29:10;102285.63;;;23.85;72.10
24013;BME280;12220;50.194;18.948;2023-08-17T06:31:22;102276.96;;;23.88;72.06
24013;BME280;12220;50.194;18.948;2023-08-17T06:33:28;102274.04;;;23.90;72.03
24013;BME280;12220;50.194;18.948;2023-08-17T06:35:30;102271.79;;;23.93;72.16
24013;BME280;12220;50.194;18.948;2023-08-17T06:37:31;102277.22;;;23.95;72.10
24013;BME280;12220;50.194;18.948;2023-08-17T06:39:35;102279.69;;;23.98;72.11
24013;BME280;12220;50.194;18.948;2023-08-17T06:41:37;102288.09;;;23.98;72.04
24013;BME280;12220;50.194;18.948;2023-08-17T06:43:38;102291.04;;;23.96;72.03
24013;BME280;12220;50.194;18.948;2023-08-17T06:45:39;102292.98;;;23.96;72.04
24013;BME280;12220;50.194;18.948;2023-08-17T06:47:49;102286.48;;;23.95;72.02
24013;BME280;12220;50.194;18.948;2023-08-17T06:49:51;102286.31;;;23.97;72.00
24013;BME280;12220;50.194;18.948;2023-08-17T06:51:52;102290.88;;;23.98;71.98
24013;BME280;12220;50.194;18.948;2023-08-17T06:53:54;102294.27;;;24.01;71.95
24013;BME280;12220;50.194;18.948;2023-08-17T06:56:04;102293.20;;;24.02;71.93
24013;BME280;12220;50.194;18.948;2023-08-17T06:58:05;102288.34;;;24.05;71.99
24013;BME280;12220;50.194;18.948;2023-08-17T07:00:07;102288.89;;;24.08;72.11
24013;BME280;12220;50.194;18.948;2023-08-17T07:02:09;102289.47;;;24.12;72.09
24013;BME280;12220;50.194;18.948;2023-08-17T07:04:19;102279.84;;;24.14;72.12
24013;BME280;12220;50.194;18.948;2023-08-17T07:06:20;102120.44;;;23.14;71.96
24013;BME280;12220;50.194;18.948;2023-08-17T07:08:22;102283.71;;;24.13;71.88
24013;BME280;12220;50.194;18.948;2023-08-17T07:10:23;102284.59;;;24.14;71.87
24013;BME280;12220;50.194;18.948;2023-08-17T07:12:34;102290.75;;;24.17;71.93
24013;BME280;12220;50.194;18.948;2023-08-17T07:14:35;102293.23;;;24.21;71.93
24013;BME280;12220;50.194;18.948;2023-08-17T07:16:37;102296.41;;;24.26;71.86
24013;BME280;12220;50.194;18.948;2023-08-17T07:18:38;102294.18;;;24.29;71.83
24013;BME280;12220;50.194;18.948;2023-08-17T07:20:48;102299.13;;;24.35;71.83
24013;BME280;12220;50.194;18.948;2023-08-17T07:22:50;102287.44;;;24.40;71.75
24013;BME280;12220;50.194;18.948;2023-08-17T07:24:51;102295.52;;;24.43;71.73
24013;BME280;12220;50.194;18.948;2023-08-17T07:26:53;102285.76;;;24.47;71.68
24013;BME280;12220;50.194;18.948;2023-08-17T07:29:03;102277.77;;;24.52;71.63
24013;BME280;12220;50.194;18.948;2023-08-17T07:31:05;102279.17;;;24.57;71.57
24013;BME280;12220;50.194;18.948;2023-08-17T07:33:07;102280.47;;;24.62;71.49
24013;BME280;12220;50.194;18.948;2023-08-17T07:35:08;102281.91;;;24.66;71.29
24013;BME280;12220;50.194;18.948;2023-08-17T07:37:18;102273.17;;;24.69;71.13
24013;BME280;12220;50.194;18.948;2023-08-17T07:39:19;102276.72;;;24.71;71.08
24013;BME280;12220;50.194;18.948;2023-08-17T07:41:21;102271.81;;;24.74;71.04
24013;BME280;12220;50.194;18.948;2023-08-17T07:43:22;102275.34;;;24.76;70.93
24013;BME280;12220;50.194;18.948;2023-08-17T07:45:33;102274.12;;;24.78;70.87
24013;BME280;12220;50.194;18.948;2023-08-17T07:47:35;102275.71;;;24.81;70.83
24013;BME280;12220;50.194;18.948;2023-08-17T07:49:39;102278.34;;;24.82;70.69
24013;BME280;12220;50.194;18.948;2023-08-17T07:51:40;102279.95;;;24.85;70.73
24013;BME280;12220;50.194;18.948;2023-08-17T07:53:48;102279.45;;;24.89;70.72
24013;BME280;12220;50.194;18.948;2023-08-17T07:55:49;102278.09;;;24.94;70.73
24013;BME280;12220;50.194;18.948;2023-08-17T07:57:50;102275.81;;;24.97;70.71
24013;BME280;12220;50.194;18.948;2023-08-17T07:59:52;102286.71;;;25.00;70.44
24013;BME280;12220;50.194;18.948;2023-08-17T08:02:03;102284.61;;;25.02;70.32
24013;BME280;12220;50.194;18.948;2023-08-17T08:04:04;102282.52;;;25.04;70.24
24013;BME280;12220;50.194;18.948;2023-08-17T08:06:05;102290.28;;;25.11;70.25
24013;BME280;12220;50.194;18.948;2023-08-17T08:08:07;102282.97;;;25.18;70.19
24013;BME280;12220;50.194;18.948;2023-08-17T08:10:17;102087.66;;;24.15;70.00
24013;BME280;12220;50.194;18.948;2023-08-17T08:12:19;102277.04;;;25.29;69.78
24013;BME280;12220;50.194;18.948;2023-08-17T08:14:20;102277.46;;;25.34;69.67
24013;BME280;12220;50.194;18.948;2023-08-17T08:16:21;102276.09;;;25.38;69.62
24013;BME280;12220;50.194;18.948;2023-08-17T08:18:32;102276.10;;;25.47;69.59
24013;BME280;12220;50.194;18.948;2023-08-17T08:20:34;102270.52;;;25.55;69.46
24013;BME280;12220;50.194;18.948;2023-08-17T08:22:35;102277.91;;;25.64;69.27
24013;BME280;12220;50.194;18.948;2023-08-17T08:24:36;102276.74;;;25.75;69.20
24013;BME280;12220;50.194;18.948;2023-08-17T08:26:47;102272.03;;;25.84;68.92
24013;BME280;12220;50.194;18.948;2023-08-17T08:28:49;102267.48;;;25.91;68.85
24013;BME280;12220;50.194;18.948;2023-08-17T08:30:53;102269.11;;;26.02;68.69
24013;BME280;12220;50.194;18.948;2023-08-17T08:32:55;102261.22;;;26.14;68.68
24013;BME280;12220;50.194;18.948;2023-08-17T08:35:02;102265.27;;;26.27;68.62
24013;BME280;12220;50.194;18.948;2023-08-17T08:37:04;102256.33;;;26.40;68.50
24013;BME280;12220;50.194;18.948;2023-08-17T08:39:05;102262.29;;;26.54;68.24
24013;BME280;12220;50.194;18.948;2023-08-17T08:41:09;102254.20;;;26.67;68.06
24013;BME280;12220;50.194;18.948;2023-08-17T08:43:17;102265.10;;;26.78;67.72
24013;BME280;12220;50.194;18.948;2023-08-17T08:45:20;102256.30;;;26.90;67.41
24013;BME280;12220;50.194;18.948;2023-08-17T08:47:23;102257.66;;;27.02;67.11
24013;BME280;12220;50.194;18.948;2023-08-17T08:49:27;102259.38;;;27.11;66.60
24013;BME280;12220;50.194;18.948;2023-08-17T08:51:36;102254.78;;;27.19;66.31
24013;BME280;12220;50.194;18.948;2023-08-17T09:05:52;102233.63;;;28.48;61.91
24013;BME280;12220;50.194;18.948;2023-08-17T09:07:57;102239.29;;;28.25;62.64
24013;BME280;12220;50.194;18.948;2023-08-17T09:09:59;102231.99;;;28.31;62.82
24013;BME280;12220;50.194;18.948;2023-08-17T09:12:07;102232.80;;;28.40;62.63
24013;BME280;12220;50.194;18.948;2023-08-17T09:14:12;102222.91;;;28.44;62.02
24013;BME280;12220;50.194;18.948;2023-08-17T09:16:16;102226.44;;;28.46;61.79
24013;BME280;12220;50.194;18.948;2023-08-17T09:18:17;102225.66;;;28.52;61.74
24013;BME280;12220;50.194;18.948;2023-08-17T09:22:41;102223.84;;;28.59;60.45
24013;BME280;12220;50.194;18.948;2023-08-17T09:24:47;102225.43;;;28.62;60.13
24013;BME280;12220;50.194;18.948;2023-08-17T09:26:50;102221.71;;;28.61;60.05
24013;BME280;12220;50.194;18.948;2023-08-17T09:28:52;102214.82;;;28.64;60.00
24013;BME280;12220;50.194;18.948;2023-08-17T09:31:00;102212.87;;;28.64;59.93
24013;BME280;12220;50.194;18.948;2023-08-17T09:33:04;102220.97;;;28.67;59.77
24013;BME280;12220;50.194;18.948;2023-08-17T09:35:06;102212.32;;;28.69;59.41
24013;BME280;12220;50.194;18.948;2023-08-17T09:37:11;102207.35;;;28.71;57.68
24013;BME280;12220;50.194;18.948;2023-08-17T09:39:13;102202.02;;;28.76;58.44
24013;BME280;12220;50.194;18.948;2023-08-17T09:41:17;102197.36;;;28.83;57.89
24013;BME280;12220;50.194;18.948;2023-08-17T09:43:19;102197.84;;;28.87;57.97
24013;BME280;12220;50.194;18.948;2023-08-17T09:45:23;102195.13;;;28.94;57.77
24013;BME280;12220;50.194;18.948;2023-08-17T09:47:27;102188.70;;;29.00;57.92
24013;BME280;12220;50.194;18.948;2023-08-17T09:49:33;102187.71;;;29.08;57.92
24013;BME280;12220;50.194;18.948;2023-08-17T09:51:35;102189.27;;;29.10;55.98
24013;BME280;12220;50.194;18.948;2023-08-17T09:53:36;102189.16;;;29.18;56.16
24013;BME280;12220;50.194;18.948;2023-08-17T09:55:44;102181.52;;;29.27;56.46
24013;BME280;12220;50.194;18.948;2023-08-17T09:57:46;102197.70;;;29.40;56.50
24013;BME280;12220;50.194;18.948;2023-08-17T09:59:49;102180.26;;;29.51;56.46
24013;BME280;12220;50.194;18.948;2023-08-17T10:01:56;102182.37;;;29.64;56.40
24013;BME280;12220;50.194;18.948;2023-08-17T10:04:00;102183.61;;;29.77;56.23
24013;BME280;12220;50.194;18.948;2023-08-17T10:06:05;102186.11;;;29.86;54.54
24013;BME280;12220;50.194;18.948;2023-08-17T10:08:11;102191.35;;;29.89;54.07
24013;BME280;12220;50.194;18.948;2023-08-17T10:10:21;102189.88;;;29.94;54.37
24013;BME280;12220;50.194;18.948;2023-08-17T10:12:27;102190.77;;;29.94;53.82
24013;BME280;12220;50.194;18.948;2023-08-17T10:14:30;102186.03;;;30.01;54.26
24013;BME280;12220;50.194;18.948;2023-08-17T10:16:45;102193.73;;;30.07;54.06
24013;BME280;12220;50.194;18.948;2023-08-17T10:18:59;102179.43;;;30.16;54.09
24013;BME280;12220;50.194;18.948;2023-08-17T10:21:04;102187.98;;;30.22;54.43
24013;BME280;12220;50.194;18.948;2023-08-17T10:23:12;102180.88;;;30.33;54.45
24013;BME280;12220;50.194;18.948;2023-08-17T10:25:16;102177.05;;;30.41;53.47
24013;BME280;12220;50.194;18.948;2023-08-17T10:27:28;102178.42;;;30.45;53.23
24013;BME280;12220;50.194;18.948;2023-08-17T10:29:30;102173.23;;;30.49;52.44
24013;BME280;12220;50.194;18.948;2023-08-17T10:31:35;102175.23;;;30.55;52.35
24013;BME280;12220;50.194;18.948;2023-08-17T10:33:37;102174.21;;;30.63;52.51
24013;BME280;12220;50.194;18.948;2023-08-17T10:35:43;102172.75;;;30.73;52.25
24013;BME280;12220;50.194;18.948;2023-08-17T10:37:45;102171.70;;;30.81;51.64
24013;BME280;12220;50.194;18.948;2023-08-17T10:39:48;102177.20;;;30.89;51.75
24013;BME280;12220;50.194;18.948;2023-08-17T10:41:52;102183.37;;;31.00;51.39
24013;BME280;12220;50.194;18.948;2023-08-17T10:43:58;102181.46;;;31.07;50.29
24013;BME280;12220;50.194;18.948;2023-08-17T10:50:24;102185.42;;;31.19;48.19
24013;BME280;12220;50.194;18.948;2023-08-17T10:52:29;102188.09;;;31.27;48.28
24013;BME280;12220;50.194;18.948;2023-08-17T10:54:41;102188.98;;;31.35;48.70
24013;BME280;12220;50.194;18.948;2023-08-17T10:56:43;102194.00;;;31.39;48.87
24013;BME280;12220;50.194;18.948;2023-08-17T10:58:44;102195.11;;;31.45;49.13